createdAt,value
2023-03-29T00:00:01.710Z,998.21
2023-03-29T00:00:11.922Z,998.20
2023-03-29T00:00:22.163Z,998.18
2023-03-29T00:00:32.397Z,998.17
2023-03-29T00:00:42.632Z,998.18
2023-03-29T00:00:52.874Z,998.17
2023-03-29T00:01:03.321Z,998.16
2023-03-29T00:01:35.652Z,998.18
2023-03-29T00:01:35.839Z,998.17
2023-03-29T00:01:36.498Z,998.15
2023-03-29T00:01:44.447Z,998.14
2023-03-29T00:01:54.714Z,998.15
2023-03-29T00:02:05.021Z,998.15
2023-03-29T00:02:15.338Z,998.15
2023-03-29T00:02:25.603Z,998.15
2023-03-29T00:02:35.927Z,998.13
2023-03-29T00:02:46.296Z,998.13
2023-03-29T00:02:56.737Z,998.15
2023-03-29T00:03:07.027Z,998.13
2023-03-29T00:03:17.226Z,998.10
2023-03-29T00:03:27.427Z,998.12
2023-03-29T00:03:37.832Z,998.11
2023-03-29T00:03:48.116Z,998.11
2023-03-29T00:04:00.446Z,998.11
2023-03-29T00:04:08.700Z,998.10
2023-03-29T00:04:18.966Z,998.10
2023-03-29T00:04:29.225Z,998.09
2023-03-29T00:04:39.572Z,998.11
2023-03-29T00:04:49.834Z,998.11
2023-03-29T00:05:00.043Z,998.09
2023-03-29T00:05:10.287Z,998.11
2023-03-29T00:05:20.540Z,998.10
2023-03-29T00:05:30.784Z,998.09
2023-03-29T00:05:41.017Z,998.10
2023-03-29T00:05:51.245Z,998.10
2023-03-29T00:06:01.487Z,998.10
2023-03-29T00:06:11.735Z,998.10
2023-03-29T00:06:21.992Z,998.10
2023-03-29T00:06:32.246Z,998.12
2023-03-29T00:06:42.481Z,998.12
2023-03-29T00:06:52.742Z,998.09
2023-03-29T00:07:02.957Z,998.11
2023-03-29T00:07:13.198Z,998.09
2023-03-29T00:07:23.447Z,998.11
2023-03-29T00:07:33.681Z,998.09
2023-03-29T00:07:43.927Z,998.10
2023-03-29T00:07:54.370Z,998.11
2023-03-29T00:08:04.735Z,998.11
2023-03-29T00:08:15.019Z,998.11
2023-03-29T00:08:25.022Z,998.09
2023-03-29T00:08:35.281Z,998.09
2023-03-29T00:08:45.497Z,998.09
2023-03-29T00:08:55.732Z,998.10
2023-03-29T00:09:06.085Z,998.09
2023-03-29T00:09:16.395Z,998.09
2023-03-29T00:09:26.694Z,998.11
2023-03-29T00:09:36.912Z,998.10
2023-03-29T00:09:47.151Z,998.07
2023-03-29T00:09:57.382Z,998.07
2023-03-29T00:10:07.629Z,998.09
2023-03-29T00:10:17.852Z,998.06
2023-03-29T00:10:28.087Z,998.07
2023-03-29T00:10:38.368Z,998.07
2023-03-29T00:10:48.567Z,998.06
2023-03-29T00:10:58.833Z,998.06
2023-03-29T00:11:09.097Z,998.06
2023-03-29T00:11:19.314Z,998.08
2023-03-29T00:11:29.541Z,998.07
2023-03-29T00:11:39.778Z,998.06
2023-03-29T00:11:50.011Z,998.06
2023-03-29T00:12:00.249Z,998.06
2023-03-29T00:12:10.492Z,998.06
2023-03-29T00:12:20.727Z,998.08
2023-03-29T00:12:30.954Z,998.07
2023-03-29T00:12:41.202Z,998.06
2023-03-29T00:12:51.439Z,998.07
2023-03-29T00:13:02.722Z,998.07
2023-03-29T00:13:12.093Z,998.07
2023-03-29T00:13:22.330Z,998.06
2023-03-29T00:13:32.564Z,998.06
2023-03-29T00:13:42.800Z,998.06
2023-03-29T00:13:53.071Z,998.06
2023-03-29T00:14:03.309Z,998.05
2023-03-29T00:14:13.552Z,998.05
2023-03-29T00:14:23.789Z,998.04
2023-03-29T00:14:34.015Z,998.03
2023-03-29T00:14:44.245Z,998.02
2023-03-29T00:14:54.488Z,998.04
2023-03-29T00:15:04.726Z,998.03
2023-03-29T00:15:14.986Z,998.03
2023-03-29T00:15:25.201Z,998.01
2023-03-29T00:15:35.434Z,998.01
2023-03-29T00:15:45.718Z,998.01
2023-03-29T00:15:55.956Z,998.01
2023-03-29T00:16:06.260Z,998.01
2023-03-29T00:16:17.754Z,997.98
2023-03-29T00:16:26.945Z,997.99
2023-03-29T00:16:37.224Z,997.98
2023-03-29T00:16:47.466Z,997.98
2023-03-29T00:16:57.729Z,997.95
2023-03-29T00:17:08.069Z,997.98
2023-03-29T00:17:18.287Z,997.96
2023-03-29T00:17:28.579Z,997.96
2023-03-29T00:17:38.862Z,997.94
2023-03-29T00:17:49.115Z,997.94
2023-03-29T00:17:59.397Z,997.94
2023-03-29T00:18:09.689Z,997.95
2023-03-29T00:18:19.982Z,997.95
2023-03-29T00:18:30.214Z,997.94
2023-03-29T00:18:40.444Z,997.95
2023-03-29T00:18:50.679Z,997.92
2023-03-29T00:19:00.918Z,997.92
2023-03-29T00:19:11.151Z,997.94
2023-03-29T00:19:21.384Z,997.93
2023-03-29T00:19:31.618Z,997.93
2023-03-29T00:19:41.863Z,997.94
2023-03-29T00:19:52.119Z,997.94
2023-03-29T00:20:02.350Z,997.94
2023-03-29T00:20:12.583Z,997.92
2023-03-29T00:20:22.807Z,997.93
2023-03-29T00:20:33.040Z,997.93
2023-03-29T00:20:43.291Z,997.94
2023-03-29T00:20:53.537Z,997.95
2023-03-29T00:21:04.034Z,997.94
2023-03-29T00:21:15.098Z,997.94
2023-03-29T00:21:24.432Z,997.94
2023-03-29T00:21:34.668Z,997.93
2023-03-29T00:21:44.926Z,997.94
2023-03-29T00:21:55.144Z,997.92
2023-03-29T00:22:05.440Z,997.93
2023-03-29T00:22:15.657Z,997.93
2023-03-29T00:22:25.890Z,997.92
2023-03-29T00:22:36.168Z,997.93
2023-03-29T00:22:46.376Z,997.89
2023-03-29T00:22:56.609Z,997.90
2023-03-29T00:23:06.858Z,997.92
2023-03-29T00:23:17.085Z,997.88
2023-03-29T00:23:27.332Z,997.89
2023-03-29T00:23:37.583Z,997.88
2023-03-29T00:23:47.821Z,997.88
2023-03-29T00:23:58.054Z,997.88
2023-03-29T00:24:08.286Z,997.88
2023-03-29T00:24:18.542Z,997.87
2023-03-29T00:24:28.768Z,997.86
2023-03-29T00:24:39.005Z,997.87
2023-03-29T00:24:49.320Z,997.84
2023-03-29T00:24:59.557Z,997.85
2023-03-29T00:25:09.837Z,997.85
2023-03-29T00:25:20.074Z,997.83
2023-03-29T00:25:30.294Z,997.83
2023-03-29T00:25:40.529Z,997.86
2023-03-29T00:25:50.836Z,997.84
2023-03-29T00:26:01.153Z,997.82
2023-03-29T00:26:11.384Z,997.82
2023-03-29T00:26:21.618Z,997.83
2023-03-29T00:26:31.881Z,997.81
2023-03-29T00:26:42.131Z,997.81
2023-03-29T00:26:52.340Z,997.80
2023-03-29T00:27:02.588Z,997.80
2023-03-29T00:27:12.825Z,997.80
2023-03-29T00:27:23.057Z,997.80
2023-03-29T00:27:33.311Z,997.80
2023-03-29T00:27:43.746Z,997.81
2023-03-29T00:27:53.815Z,997.80
2023-03-29T00:28:04.041Z,997.79
2023-03-29T00:28:14.275Z,997.79
2023-03-29T00:28:24.509Z,997.77
2023-03-29T00:28:34.774Z,997.77
2023-03-29T00:28:45.006Z,997.77
2023-03-29T00:28:55.226Z,997.77
2023-03-29T00:29:05.546Z,997.74
2023-03-29T00:29:15.797Z,997.75
2023-03-29T00:29:26.021Z,997.75
2023-03-29T00:29:36.253Z,997.75
2023-03-29T00:29:46.564Z,997.74
2023-03-29T00:29:56.790Z,997.73
2023-03-29T00:30:07.025Z,997.74
2023-03-29T00:30:17.301Z,997.74
2023-03-29T00:30:27.540Z,997.75
2023-03-29T00:30:37.789Z,997.77
2023-03-29T00:30:48.012Z,997.72
2023-03-29T00:30:59.311Z,997.73
2023-03-29T00:31:08.652Z,997.74
2023-03-29T00:31:18.932Z,997.75
2023-03-29T00:31:29.277Z,997.73
2023-03-29T00:31:39.772Z,997.72
2023-03-29T00:31:49.783Z,997.70
2023-03-29T00:31:59.991Z,997.71
2023-03-29T00:32:10.236Z,997.72
2023-03-29T00:32:20.469Z,997.72
2023-03-29T00:32:30.729Z,997.72
2023-03-29T00:32:41.051Z,997.69
2023-03-29T00:32:51.477Z,997.72
2023-03-29T00:33:01.634Z,997.70
2023-03-29T00:33:11.883Z,997.72
2023-03-29T00:33:22.143Z,997.71
2023-03-29T00:33:32.407Z,997.70
2023-03-29T00:33:42.613Z,997.73
2023-03-29T00:33:52.836Z,997.71
2023-03-29T00:34:03.081Z,997.70
2023-03-29T00:34:13.320Z,997.68
2023-03-29T00:34:23.555Z,997.69
2023-03-29T00:34:33.808Z,997.71
2023-03-29T00:34:44.040Z,997.71
2023-03-29T00:34:54.258Z,997.70
2023-03-29T00:35:04.579Z,997.70
2023-03-29T00:35:14.725Z,997.69
2023-03-29T00:35:24.978Z,997.70
2023-03-29T00:35:35.226Z,997.69
2023-03-29T00:35:45.481Z,997.69
2023-03-29T00:35:55.745Z,997.68
2023-03-29T00:36:06.045Z,997.70
2023-03-29T00:36:16.278Z,997.67
2023-03-29T00:36:26.514Z,997.67
2023-03-29T00:36:36.745Z,997.67
2023-03-29T00:36:47.026Z,997.67
2023-03-29T00:36:58.789Z,997.67
2023-03-29T00:37:07.494Z,997.66
2023-03-29T00:37:17.730Z,997.67
2023-03-29T00:37:27.967Z,997.66
2023-03-29T00:37:38.235Z,997.65
2023-03-29T00:37:48.496Z,997.67
2023-03-29T00:38:09.101Z,997.64
2023-03-29T00:38:19.725Z,997.64
2023-03-29T00:38:29.756Z,997.63
2023-03-29T00:38:40.004Z,997.63
2023-03-29T00:38:50.221Z,997.62
2023-03-29T00:39:00.454Z,997.63
2023-03-29T00:39:10.706Z,997.62
2023-03-29T00:39:20.986Z,997.59
2023-03-29T00:39:31.202Z,997.61
2023-03-29T00:39:41.442Z,997.61
2023-03-29T00:39:51.681Z,997.61
2023-03-29T00:40:01.945Z,997.60
2023-03-29T00:40:12.159Z,997.58
2023-03-29T00:40:22.381Z,997.56
2023-03-29T00:40:32.629Z,997.59
2023-03-29T00:40:42.858Z,997.59
2023-03-29T00:40:53.124Z,997.55
2023-03-29T00:41:03.670Z,997.56
2023-03-29T00:41:13.745Z,997.57
2023-03-29T00:41:23.989Z,997.59
2023-03-29T00:41:34.239Z,997.57
2023-03-29T00:41:44.451Z,997.56
2023-03-29T00:41:54.698Z,997.57
2023-03-29T00:42:04.952Z,997.57
2023-03-29T00:42:15.153Z,997.60
2023-03-29T00:42:25.384Z,997.57
2023-03-29T00:42:35.664Z,997.59
2023-03-29T00:42:45.885Z,997.54
2023-03-29T00:42:56.121Z,997.56
2023-03-29T00:43:06.355Z,997.58
2023-03-29T00:43:16.584Z,997.57
2023-03-29T00:43:26.821Z,997.58
2023-03-29T00:43:37.072Z,997.58
2023-03-29T00:43:47.308Z,997.58
2023-03-29T00:43:57.535Z,997.59
2023-03-29T00:44:07.793Z,997.58
2023-03-29T00:44:18.011Z,997.59
2023-03-29T00:44:28.262Z,997.59
2023-03-29T00:44:38.492Z,997.60
2023-03-29T00:44:48.729Z,997.59
2023-03-29T00:44:58.995Z,997.58
2023-03-29T00:45:09.200Z,997.60
2023-03-29T00:45:19.452Z,997.58
2023-03-29T00:45:29.689Z,997.59
2023-03-29T00:45:39.906Z,997.59
2023-03-29T00:45:50.154Z,997.59
2023-03-29T00:46:01.740Z,997.59
2023-03-29T00:46:10.764Z,997.59
2023-03-29T00:46:21.004Z,997.60
2023-03-29T00:46:31.340Z,997.58
2023-03-29T00:46:41.475Z,997.56
2023-03-29T00:46:51.818Z,997.56
2023-03-29T00:47:02.754Z,997.57
2023-03-29T00:47:12.329Z,997.57
2023-03-29T00:47:22.570Z,997.57
2023-03-29T00:47:32.844Z,997.56
2023-03-29T00:47:43.123Z,997.58
2023-03-29T00:47:53.366Z,997.56
2023-03-29T00:48:03.601Z,997.55
2023-03-29T00:48:13.865Z,997.57
2023-03-29T00:48:24.165Z,997.58
2023-03-29T00:48:34.401Z,997.56
2023-03-29T00:48:44.636Z,997.55
2023-03-29T00:48:55.060Z,997.55
2023-03-29T00:49:05.293Z,997.53
2023-03-29T00:49:15.545Z,997.53
2023-03-29T00:49:25.890Z,997.54
2023-03-29T00:49:36.161Z,997.53
2023-03-29T00:49:46.379Z,997.54
2023-03-29T00:49:56.610Z,997.54
2023-03-29T00:50:06.847Z,997.55
2023-03-29T00:50:17.135Z,997.55
2023-03-29T00:50:27.343Z,997.54
2023-03-29T00:50:37.573Z,997.52
2023-03-29T00:50:47.838Z,997.54
2023-03-29T00:50:58.073Z,997.57
2023-03-29T00:51:09.894Z,997.54
2023-03-29T00:51:18.529Z,997.51
2023-03-29T00:51:28.762Z,997.55
2023-03-29T00:51:39.011Z,997.53
2023-03-29T00:51:49.246Z,997.55
2023-03-29T00:51:59.482Z,997.55
2023-03-29T00:52:09.729Z,997.55
2023-03-29T00:52:19.955Z,997.56
2023-03-29T00:52:30.200Z,997.55
2023-03-29T00:52:40.451Z,997.54
2023-03-29T00:52:50.702Z,997.56
2023-03-29T00:53:00.949Z,997.54
2023-03-29T00:53:11.168Z,997.54
2023-03-29T00:53:21.410Z,997.54
2023-03-29T00:53:31.639Z,997.53
2023-03-29T00:53:42.027Z,997.53
2023-03-29T00:53:52.272Z,997.55
2023-03-29T00:54:02.523Z,997.53
2023-03-29T00:54:12.854Z,997.52
2023-03-29T00:54:23.074Z,997.51
2023-03-29T00:54:33.313Z,997.51
2023-03-29T00:54:43.670Z,997.52
2023-03-29T00:54:53.771Z,997.49
2023-03-29T00:55:04.018Z,997.50
2023-03-29T00:55:14.240Z,997.50
2023-03-29T00:55:24.467Z,997.50
2023-03-29T00:55:34.713Z,997.50
2023-03-29T00:55:45.018Z,997.47
2023-03-29T00:55:55.244Z,997.47
2023-03-29T00:56:05.495Z,997.45
2023-03-29T00:56:15.716Z,997.46
2023-03-29T00:56:25.983Z,997.44
2023-03-29T00:56:36.323Z,997.45
2023-03-29T00:56:46.599Z,997.44
2023-03-29T00:56:56.871Z,997.43
2023-03-29T00:57:07.178Z,997.43
2023-03-29T00:57:17.490Z,997.41
2023-03-29T00:57:27.868Z,997.44
2023-03-29T00:57:38.120Z,997.40
2023-03-29T00:57:48.359Z,997.43
2023-03-29T00:57:58.689Z,997.41
2023-03-29T00:58:08.962Z,997.41
2023-03-29T00:58:19.213Z,997.41
2023-03-29T00:58:29.435Z,997.41
2023-03-29T00:58:39.688Z,997.39
2023-03-29T00:58:49.920Z,997.40
2023-03-29T00:59:00.164Z,997.41
2023-03-29T00:59:10.400Z,997.41
2023-03-29T00:59:20.633Z,997.42
2023-03-29T00:59:30.866Z,997.41
2023-03-29T00:59:41.121Z,997.40
2023-03-29T00:59:52.756Z,997.41
2023-03-29T01:00:01.733Z,997.42
2023-03-29T01:00:11.978Z,997.42
2023-03-29T01:00:22.272Z,997.41
2023-03-29T01:00:32.578Z,997.40
2023-03-29T01:00:42.809Z,997.43
2023-03-29T01:00:53.061Z,997.39
2023-03-29T01:01:03.623Z,997.41
2023-03-29T01:01:13.629Z,997.39
2023-03-29T01:01:23.984Z,997.40
2023-03-29T01:01:34.377Z,997.38
2023-03-29T01:01:44.754Z,997.39
2023-03-29T01:01:55.351Z,997.39
2023-03-29T01:02:05.506Z,997.39
2023-03-29T01:02:15.652Z,997.39
2023-03-29T01:02:26.006Z,997.38
2023-03-29T01:02:36.327Z,997.36
2023-03-29T01:02:46.561Z,997.35
2023-03-29T01:02:56.935Z,997.35
2023-03-29T01:03:07.322Z,997.36
2023-03-29T01:03:17.566Z,997.35
2023-03-29T01:03:27.944Z,997.37
2023-03-29T01:03:38.312Z,997.37
2023-03-29T01:03:48.818Z,997.36
2023-03-29T01:03:59.032Z,997.35
2023-03-29T01:04:09.343Z,997.36
2023-03-29T01:04:19.431Z,997.37
2023-03-29T01:04:29.722Z,997.37
2023-03-29T01:04:39.931Z,997.36
2023-03-29T01:04:50.265Z,997.33
2023-03-29T01:05:02.349Z,997.36
2023-03-29T01:05:10.957Z,997.36
2023-03-29T01:05:21.186Z,997.34
2023-03-29T01:05:31.510Z,997.35
2023-03-29T01:05:41.818Z,997.35
2023-03-29T01:05:52.223Z,997.35
2023-03-29T01:06:02.509Z,997.35
2023-03-29T01:06:12.845Z,997.36
2023-03-29T01:06:23.203Z,997.36
2023-03-29T01:06:33.438Z,997.37
2023-03-29T01:06:43.749Z,997.37
2023-03-29T01:06:54.105Z,997.36
2023-03-29T01:07:04.542Z,997.38
2023-03-29T01:07:14.830Z,997.38
2023-03-29T01:07:25.113Z,997.37
2023-03-29T01:07:35.400Z,997.35
2023-03-29T01:07:45.626Z,997.36
2023-03-29T01:07:55.984Z,997.35
2023-03-29T01:08:06.228Z,997.36
2023-03-29T01:08:16.488Z,997.35
2023-03-29T01:08:26.730Z,997.35
2023-03-29T01:08:36.977Z,997.37
2023-03-29T01:08:47.248Z,997.35
2023-03-29T01:08:57.509Z,997.35
2023-03-29T01:09:07.796Z,997.36
2023-03-29T01:09:18.088Z,997.36
2023-03-29T01:09:28.373Z,997.37
2023-03-29T01:09:38.618Z,997.35
2023-03-29T01:09:48.985Z,997.36
2023-03-29T01:09:59.264Z,997.37
2023-03-29T01:10:09.741Z,997.35
2023-03-29T01:10:19.787Z,997.35
2023-03-29T01:10:30.079Z,997.37
2023-03-29T01:10:40.319Z,997.34
2023-03-29T01:10:50.569Z,997.35
2023-03-29T01:11:01.041Z,997.35
2023-03-29T01:11:11.159Z,997.35
2023-03-29T01:11:21.436Z,997.35
2023-03-29T01:11:31.726Z,997.35
2023-03-29T01:11:41.973Z,997.35
2023-03-29T01:11:52.214Z,997.34
2023-03-29T01:12:02.488Z,997.36
2023-03-29T01:12:12.738Z,997.35
2023-03-29T01:12:23.757Z,997.32
2023-03-29T01:12:33.234Z,997.32
2023-03-29T01:12:43.519Z,997.36
2023-03-29T01:12:53.811Z,997.34
2023-03-29T01:13:04.111Z,997.29
2023-03-29T01:13:14.363Z,997.28
2023-03-29T01:13:24.628Z,997.30
2023-03-29T01:13:34.885Z,997.29
2023-03-29T01:13:45.146Z,997.30
2023-03-29T01:13:56.546Z,997.29
2023-03-29T01:14:05.708Z,997.28
2023-03-29T01:14:16.079Z,997.28
2023-03-29T01:14:26.288Z,997.30
2023-03-29T01:14:36.564Z,997.29
2023-03-29T01:14:46.796Z,997.29
2023-03-29T01:14:57.036Z,997.29
2023-03-29T01:15:07.300Z,997.29
2023-03-29T01:15:17.559Z,997.31
2023-03-29T01:15:27.829Z,997.31
2023-03-29T01:15:38.060Z,997.30
2023-03-29T01:15:48.362Z,997.31
2023-03-29T01:15:58.654Z,997.29
2023-03-29T01:16:08.922Z,997.30
2023-03-29T01:16:19.262Z,997.32
2023-03-29T01:16:29.606Z,997.31
2023-03-29T01:16:39.869Z,997.29
2023-03-29T01:16:50.220Z,997.30
2023-03-29T01:17:00.511Z,997.32
2023-03-29T01:17:10.809Z,997.30
2023-03-29T01:17:21.047Z,997.29
2023-03-29T01:17:31.333Z,997.29
2023-03-29T01:17:41.712Z,997.30
2023-03-29T01:17:52.034Z,997.28
2023-03-29T01:18:02.368Z,997.27
2023-03-29T01:18:12.651Z,997.25
2023-03-29T01:18:22.826Z,997.24
2023-03-29T01:18:33.085Z,997.28
2023-03-29T01:18:43.376Z,997.25
2023-03-29T01:18:53.648Z,997.23
2023-03-29T01:19:03.893Z,997.23
2023-03-29T01:19:14.163Z,997.21
2023-03-29T01:19:24.809Z,997.24
2023-03-29T01:19:34.710Z,997.22
2023-03-29T01:19:44.966Z,997.25
2023-03-29T01:19:55.211Z,997.23
2023-03-29T01:20:05.488Z,997.25
2023-03-29T01:20:15.777Z,997.24
2023-03-29T01:20:26.058Z,997.23
2023-03-29T01:20:36.320Z,997.23
2023-03-29T01:20:46.596Z,997.24
2023-03-29T01:20:56.848Z,997.23
2023-03-29T01:21:07.176Z,997.24
2023-03-29T01:21:17.397Z,997.25
2023-03-29T01:21:27.768Z,997.26
2023-03-29T01:21:38.044Z,997.25
2023-03-29T01:21:48.318Z,997.21
2023-03-29T01:21:58.660Z,997.22
2023-03-29T01:22:09.061Z,997.23
2023-03-29T01:22:19.098Z,997.24
2023-03-29T01:22:29.437Z,997.26
2023-03-29T01:22:39.690Z,997.25
2023-03-29T01:22:49.952Z,997.23
2023-03-29T01:23:00.244Z,997.24
2023-03-29T01:23:10.536Z,997.25
2023-03-29T01:23:20.864Z,997.22
2023-03-29T01:23:31.143Z,997.24
2023-03-29T01:23:41.386Z,997.25
2023-03-29T01:23:51.643Z,997.22
2023-03-29T01:24:02.049Z,997.22
2023-03-29T01:24:12.306Z,997.24
2023-03-29T01:24:24.784Z,997.24
2023-03-29T01:24:34.610Z,997.24
2023-03-29T01:24:43.319Z,997.24
2023-03-29T01:24:53.575Z,997.24
2023-03-29T01:25:03.825Z,997.24
2023-03-29T01:25:14.110Z,997.22
2023-03-29T01:25:34.795Z,997.25
2023-03-29T01:25:47.271Z,997.23
2023-03-29T01:25:55.358Z,997.23
2023-03-29T01:26:05.591Z,997.23
2023-03-29T01:26:15.838Z,997.23
2023-03-29T01:26:26.058Z,997.24
2023-03-29T01:26:36.299Z,997.23
2023-03-29T01:26:56.922Z,997.20
2023-03-29T01:27:07.153Z,997.21
2023-03-29T01:27:18.759Z,997.19
2023-03-29T01:27:27.715Z,997.18
2023-03-29T01:27:37.959Z,997.20
2023-03-29T01:27:48.196Z,997.18
2023-03-29T01:27:58.435Z,997.18
2023-03-29T01:28:08.739Z,997.18
2023-03-29T01:28:18.987Z,997.18
2023-03-29T01:28:29.216Z,997.16
2023-03-29T01:28:39.471Z,997.17
2023-03-29T01:28:49.725Z,997.18
2023-03-29T01:28:59.991Z,997.15
2023-03-29T01:29:10.227Z,997.17
2023-03-29T01:29:20.461Z,997.16
2023-03-29T01:29:30.702Z,997.15
2023-03-29T01:29:40.939Z,997.15
2023-03-29T01:29:51.193Z,997.14
2023-03-29T01:30:01.444Z,997.13
2023-03-29T01:30:11.676Z,997.13
2023-03-29T01:30:21.911Z,997.13
2023-03-29T01:30:32.157Z,997.12
2023-03-29T01:30:42.389Z,997.13
2023-03-29T01:30:52.635Z,997.12
2023-03-29T01:31:03.062Z,997.13
2023-03-29T01:31:13.282Z,997.11
2023-03-29T01:31:23.586Z,997.11
2023-03-29T01:31:33.855Z,997.11
2023-03-29T01:31:44.159Z,997.10
2023-03-29T01:31:54.466Z,997.09
2023-03-29T01:32:04.759Z,997.07
2023-03-29T01:32:14.984Z,997.08
2023-03-29T01:32:25.248Z,997.08
2023-03-29T01:32:35.532Z,997.06
2023-03-29T01:32:45.818Z,997.08
2023-03-29T01:32:56.089Z,997.06
2023-03-29T01:33:06.362Z,997.07
2023-03-29T01:33:16.622Z,997.04
2023-03-29T01:33:26.850Z,997.03
2023-03-29T01:33:37.086Z,997.03
2023-03-29T01:33:47.319Z,997.04
2023-03-29T01:33:57.551Z,997.04
2023-03-29T01:34:07.808Z,997.03
2023-03-29T01:34:18.052Z,997.03
2023-03-29T01:34:28.286Z,997.04
2023-03-29T01:34:38.517Z,997.04
2023-03-29T01:34:48.758Z,997.04
2023-03-29T01:34:59.000Z,997.03
2023-03-29T01:35:09.245Z,997.02
2023-03-29T01:35:19.467Z,997.02
2023-03-29T01:35:29.727Z,997.03
2023-03-29T01:35:40.016Z,997.02
2023-03-29T01:35:50.290Z,997.01
2023-03-29T01:36:00.566Z,997.02
2023-03-29T01:36:10.843Z,997.01
2023-03-29T01:36:21.065Z,997.00
2023-03-29T01:36:31.334Z,997.01
2023-03-29T01:36:41.554Z,997.02
2023-03-29T01:36:51.787Z,997.00
2023-03-29T01:37:02.049Z,997.00
2023-03-29T01:37:12.259Z,997.00
2023-03-29T01:37:22.519Z,997.00
2023-03-29T01:37:32.808Z,997.01
2023-03-29T01:37:43.046Z,996.99
2023-03-29T01:37:53.284Z,996.99
2023-03-29T01:38:03.531Z,996.97
2023-03-29T01:38:13.759Z,996.98
2023-03-29T01:38:24.009Z,996.98
2023-03-29T01:38:34.244Z,996.98
2023-03-29T01:38:44.482Z,996.97
2023-03-29T01:38:54.720Z,996.97
2023-03-29T01:39:05.002Z,996.97
2023-03-29T01:39:15.245Z,996.96
2023-03-29T01:39:25.438Z,996.97
2023-03-29T01:39:35.778Z,996.96
2023-03-29T01:39:46.001Z,996.96
2023-03-29T01:39:56.236Z,996.96
2023-03-29T01:40:06.477Z,996.95
2023-03-29T01:40:16.708Z,996.94
2023-03-29T01:40:26.948Z,996.94
2023-03-29T01:40:37.166Z,996.94
2023-03-29T01:40:47.398Z,996.94
2023-03-29T01:40:57.634Z,996.93
2023-03-29T01:41:07.886Z,996.96
2023-03-29T01:41:18.157Z,996.92
2023-03-29T01:41:28.386Z,996.93
2023-03-29T01:41:38.621Z,996.92
2023-03-29T01:41:48.862Z,996.92
2023-03-29T01:41:59.088Z,996.91
2023-03-29T01:42:09.342Z,996.92
2023-03-29T01:42:19.561Z,996.92
2023-03-29T01:42:29.796Z,996.92
2023-03-29T01:42:40.077Z,996.94
2023-03-29T01:42:50.297Z,996.93
2023-03-29T01:43:00.525Z,996.94
2023-03-29T01:43:10.764Z,996.94
2023-03-29T01:43:20.996Z,996.95
2023-03-29T01:43:31.244Z,996.94
2023-03-29T01:43:41.512Z,996.93
2023-03-29T01:43:51.711Z,996.94
2023-03-29T01:44:01.949Z,996.94
2023-03-29T01:44:12.177Z,996.93
2023-03-29T01:44:22.421Z,996.94
2023-03-29T01:44:32.637Z,996.95
2023-03-29T01:44:42.872Z,996.93
2023-03-29T01:44:53.110Z,996.93
2023-03-29T01:45:03.366Z,996.94
2023-03-29T01:45:13.623Z,996.92
2023-03-29T01:45:23.835Z,996.91
2023-03-29T01:45:34.092Z,996.93
2023-03-29T01:45:44.350Z,996.91
2023-03-29T01:45:54.671Z,996.91
2023-03-29T01:46:04.934Z,996.91
2023-03-29T01:46:15.188Z,996.89
2023-03-29T01:46:25.603Z,996.92
2023-03-29T01:46:35.934Z,996.91
2023-03-29T01:46:46.238Z,996.88
2023-03-29T01:46:56.498Z,996.88
2023-03-29T01:47:06.754Z,996.88
2023-03-29T01:47:16.971Z,996.86
2023-03-29T01:47:27.258Z,996.87
2023-03-29T01:47:37.529Z,996.85
2023-03-29T01:47:47.829Z,996.84
2023-03-29T01:47:58.128Z,996.84
2023-03-29T01:48:08.371Z,996.84
2023-03-29T01:48:18.627Z,996.84
2023-03-29T01:48:28.843Z,996.83
2023-03-29T01:48:39.084Z,996.84
2023-03-29T01:48:49.317Z,996.84
2023-03-29T01:48:59.607Z,996.84
2023-03-29T01:49:09.833Z,996.86
2023-03-29T01:49:20.034Z,996.84
2023-03-29T01:49:30.268Z,996.83
2023-03-29T01:49:40.504Z,996.84
2023-03-29T01:49:50.744Z,996.85
2023-03-29T01:50:01.584Z,996.83
2023-03-29T01:50:11.347Z,996.84
2023-03-29T01:50:21.559Z,996.84
2023-03-29T01:50:31.799Z,996.84
2023-03-29T01:50:42.053Z,996.84
2023-03-29T01:50:52.271Z,996.84
2023-03-29T01:51:02.682Z,996.85
2023-03-29T01:51:12.790Z,996.84
2023-03-29T01:51:23.029Z,996.84
2023-03-29T01:51:33.279Z,996.81
2023-03-29T01:51:43.500Z,996.83
2023-03-29T01:51:53.733Z,996.81
2023-03-29T01:52:03.968Z,996.82
2023-03-29T01:52:14.198Z,996.80
2023-03-29T01:52:24.438Z,996.79
2023-03-29T01:52:34.723Z,996.80
2023-03-29T01:52:45.009Z,996.80
2023-03-29T01:52:55.274Z,996.78
2023-03-29T01:53:05.510Z,996.79
2023-03-29T01:53:15.741Z,996.78
2023-03-29T01:53:28.351Z,996.76
2023-03-29T01:53:36.446Z,996.78
2023-03-29T01:53:46.755Z,996.80
2023-03-29T01:53:57.061Z,996.77
2023-03-29T01:54:07.318Z,996.77
2023-03-29T01:54:17.694Z,996.77
2023-03-29T01:54:40.811Z,996.75
2023-03-29T01:54:48.680Z,996.77
2023-03-29T01:54:59.122Z,996.77
2023-03-29T01:55:09.472Z,996.77
2023-03-29T01:55:19.739Z,996.77
2023-03-29T01:55:29.985Z,996.75
2023-03-29T01:55:50.635Z,996.75
2023-03-29T01:56:00.869Z,996.77
2023-03-29T01:56:11.103Z,996.77
2023-03-29T01:56:21.351Z,996.76
2023-03-29T01:56:31.576Z,996.78
2023-03-29T01:56:41.891Z,996.79
2023-03-29T01:56:52.125Z,996.81
2023-03-29T01:57:02.381Z,996.80
2023-03-29T01:57:12.709Z,996.79
2023-03-29T01:57:23.026Z,996.80
2023-03-29T01:57:33.670Z,996.81
2023-03-29T01:57:43.669Z,996.81
2023-03-29T01:57:53.920Z,996.82
2023-03-29T01:58:04.144Z,996.82
2023-03-29T01:58:14.388Z,996.82
2023-03-29T01:58:24.623Z,996.82
2023-03-29T01:58:34.854Z,996.83
2023-03-29T01:58:45.099Z,996.83
2023-03-29T01:58:55.340Z,996.83
2023-03-29T01:59:05.576Z,996.83
2023-03-29T01:59:15.873Z,996.83
2023-03-29T01:59:26.209Z,996.83
2023-03-29T01:59:36.432Z,996.85
2023-03-29T01:59:46.656Z,996.84
2023-03-29T01:59:56.895Z,996.79
2023-03-29T02:00:07.130Z,996.79
2023-03-29T02:00:17.411Z,996.79
2023-03-29T02:00:27.750Z,996.79
2023-03-29T02:00:38.033Z,996.78
2023-03-29T02:00:48.312Z,996.77
2023-03-29T02:00:58.543Z,996.78
2023-03-29T02:01:08.798Z,996.77
2023-03-29T02:01:19.065Z,996.78
2023-03-29T02:01:29.377Z,996.79
2023-03-29T02:01:39.637Z,996.77
2023-03-29T02:01:49.959Z,996.77
2023-03-29T02:02:00.319Z,996.77
2023-03-29T02:02:10.614Z,996.77
2023-03-29T02:02:20.858Z,996.78
2023-03-29T02:02:31.152Z,996.78
2023-03-29T02:02:41.507Z,996.78
2023-03-29T02:02:51.896Z,996.78
2023-03-29T02:03:02.236Z,996.80
2023-03-29T02:03:12.604Z,996.80
2023-03-29T02:03:22.973Z,996.81
2023-03-29T02:03:33.347Z,996.83
2023-03-29T02:03:43.669Z,996.84
2023-03-29T02:03:53.880Z,996.85
2023-03-29T02:04:04.129Z,996.84
2023-03-29T02:04:14.355Z,996.84
2023-03-29T02:04:24.622Z,996.85
2023-03-29T02:04:34.838Z,996.86
2023-03-29T02:04:48.774Z,996.87
2023-03-29T02:04:55.340Z,996.87
2023-03-29T02:05:05.580Z,996.86
2023-03-29T02:05:18.292Z,996.87
2023-03-29T02:05:26.160Z,996.88
2023-03-29T02:05:36.400Z,996.87
2023-03-29T02:05:59.310Z,996.88
2023-03-29T02:06:07.289Z,996.89
2023-03-29T02:06:17.653Z,996.88
2023-03-29T02:07:30.896Z,996.90
2023-03-29T02:07:41.249Z,996.90
2023-03-29T02:07:51.574Z,996.91
2023-03-29T02:08:01.865Z,996.91
2023-03-29T02:08:12.147Z,996.91
2023-03-29T02:08:22.447Z,996.91
2023-03-29T02:08:32.727Z,996.92
2023-03-29T02:08:42.999Z,996.92
2023-03-29T02:08:53.253Z,996.92
2023-03-29T02:09:03.510Z,996.93
2023-03-29T02:09:13.759Z,996.94
2023-03-29T02:09:24.022Z,996.95
2023-03-29T02:09:34.272Z,996.95
2023-03-29T02:09:44.554Z,996.94
2023-03-29T02:09:54.808Z,996.93
2023-03-29T02:10:05.103Z,996.94